createdAt,value
2023-01-30T00:01:03.570Z,-0.17
2023-01-30T00:03:30.500Z,-0.18
2023-01-30T00:05:59.572Z,-0.19
2023-01-30T00:08:26.242Z,-0.18
2023-01-30T00:10:52.908Z,-0.19
2023-01-30T00:13:24.319Z,-0.21
2023-01-30T00:15:50.901Z,-0.23
2023-01-30T00:18:17.467Z,-0.25
2023-01-30T00:20:44.279Z,-0.24
2023-01-30T00:23:11.100Z,-0.25
2023-01-30T00:25:37.747Z,-0.23
2023-01-30T00:28:06.898Z,-0.22
2023-01-30T00:30:33.701Z,-0.20
2023-01-30T00:33:00.422Z,-0.19
2023-01-30T00:35:29.683Z,-0.19
2023-01-30T00:37:57.283Z,-0.20
2023-01-30T00:40:25.111Z,-0.17
2023-01-30T00:46:02.793Z,-0.16
2023-01-30T00:48:29.507Z,-0.19
2023-01-30T00:50:58.696Z,-0.19
2023-01-30T00:53:25.409Z,-0.18
2023-01-30T00:55:53.161Z,-0.18
2023-01-30T00:58:21.005Z,-0.20
2023-01-30T01:00:48.256Z,-0.20
2023-01-30T01:03:14.763Z,-0.20
2023-01-30T01:05:44.611Z,-0.20
2023-01-30T01:08:14.310Z,-0.22
2023-01-30T01:26:05.000Z,-0.47
2023-01-30T01:28:36.283Z,-0.53
2023-01-30T01:31:10.750Z,-0.56
2023-01-30T01:33:39.173Z,-0.56
2023-01-30T01:36:08.115Z,-0.56
2023-01-30T01:38:36.003Z,-0.57
2023-01-30T01:41:06.097Z,-0.58
2023-01-30T01:43:58.624Z,-0.55
2023-01-30T01:46:35.354Z,-0.54
2023-01-30T01:49:12.601Z,-0.54
2023-01-30T01:51:54.551Z,-0.53
2023-01-30T01:54:31.718Z,-0.54
2023-01-30T01:57:04.000Z,-0.53
2023-01-30T01:59:40.812Z,-0.54
2023-01-30T02:02:12.907Z,-0.54
2023-01-30T02:05:02.378Z,-0.53
2023-01-30T02:07:53.613Z,-0.57
2023-01-30T02:10:26.686Z,-0.53
2023-01-30T02:12:57.151Z,-0.52
2023-01-30T02:15:25.317Z,-0.50
2023-01-30T02:17:53.617Z,-0.50
2023-01-30T02:20:40.048Z,-0.48
2023-01-30T02:23:31.369Z,-0.50
2023-01-30T02:25:59.335Z,-0.52
2023-01-30T02:29:07.237Z,-0.55
2023-01-30T02:31:40.620Z,-0.54
2023-01-30T02:34:25.653Z,-0.53
2023-01-30T02:37:15.496Z,-0.53
2023-01-30T02:39:55.425Z,-0.56
2023-01-30T02:42:37.760Z,-0.57
2023-01-30T02:45:17.035Z,-0.56
2023-01-30T02:47:57.023Z,-0.58
2023-01-30T02:50:36.759Z,-0.57
2023-01-30T02:53:06.419Z,-0.55
2023-01-30T02:55:37.527Z,-0.55
2023-01-30T02:58:09.994Z,-0.59
2023-01-30T03:00:43.743Z,-0.58
2023-01-30T03:03:27.109Z,-0.59
2023-01-30T03:06:10.118Z,-0.62
2023-01-30T03:09:08.041Z,-0.62
2023-01-30T03:11:49.317Z,-0.62
2023-01-30T03:14:20.483Z,-0.66
2023-01-30T03:16:52.291Z,-0.65
2023-01-30T03:19:25.819Z,-0.64
2023-01-30T03:21:54.597Z,-0.66
2023-01-30T03:24:23.132Z,-0.65
2023-01-30T03:26:58.765Z,-0.63
2023-01-30T03:29:27.168Z,-0.62
2023-01-30T03:31:55.376Z,-0.63
2023-01-30T03:34:26.202Z,-0.66
2023-01-30T03:36:58.078Z,-0.68
2023-01-30T03:39:26.696Z,-0.68
2023-01-30T03:41:55.016Z,-0.67
2023-01-30T03:44:23.726Z,-0.67
2023-01-30T03:46:51.784Z,-0.69
2023-01-30T03:49:23.556Z,-0.72
2023-01-30T03:51:52.492Z,-0.71
2023-01-30T03:54:20.570Z,-0.71
2023-01-30T03:56:52.329Z,-0.70
2023-01-30T03:59:23.279Z,-0.68
2023-01-30T04:01:58.218Z,-0.70
2023-01-30T04:04:26.530Z,-0.73
2023-01-30T04:06:54.750Z,-0.74
2023-01-30T04:09:22.992Z,-0.77
2023-01-30T04:11:53.067Z,-0.78
2023-01-30T04:14:21.129Z,-0.78
2023-01-30T04:17:12.477Z,-0.79
2023-01-30T04:20:07.011Z,-0.80
2023-01-30T04:22:37.686Z,-0.79
2023-01-30T04:25:05.790Z,-0.81
2023-01-30T04:27:33.881Z,-0.79
2023-01-30T04:30:12.305Z,-0.80
2023-01-30T04:32:44.189Z,-0.83
2023-01-30T04:35:14.668Z,-0.83
2023-01-30T04:37:42.677Z,-0.83
2023-01-30T04:40:11.473Z,-0.83
2023-01-30T04:42:40.227Z,-0.84
2023-01-30T04:45:37.243Z,-0.85
2023-01-30T04:48:05.503Z,-0.83
2023-01-30T04:50:33.609Z,-0.87
2023-01-30T04:53:01.561Z,-0.89
2023-01-30T04:55:29.919Z,-0.89
2023-01-30T04:58:03.355Z,-0.86
2023-01-30T05:00:34.553Z,-0.85
2023-01-30T05:03:02.854Z,-0.85
2023-01-30T05:05:31.055Z,-0.84
2023-01-30T05:08:01.700Z,-0.83
2023-01-30T05:10:29.639Z,-0.82
2023-01-30T05:13:02.399Z,-0.81
2023-01-30T05:15:33.935Z,-0.81
2023-01-30T05:18:01.906Z,-0.81
2023-01-30T05:20:32.114Z,-0.82
2023-01-30T05:23:00.013Z,-0.84
2023-01-30T05:25:28.016Z,-0.83
2023-01-30T05:27:57.158Z,-0.86
2023-01-30T05:30:25.348Z,-0.86
2023-01-30T05:32:53.571Z,-0.85
2023-01-30T05:35:21.767Z,-0.84
2023-01-30T05:37:52.928Z,-0.84
2023-01-30T05:40:20.906Z,-0.82
2023-01-30T05:42:48.951Z,-0.82
2023-01-30T05:45:17.309Z,-0.85
2023-01-30T05:47:50.168Z,-0.86
2023-01-30T05:50:18.282Z,-0.83
2023-01-30T05:52:46.632Z,-0.82
2023-01-30T05:55:14.720Z,-0.78
2023-01-30T05:57:42.874Z,-0.78
2023-01-30T06:00:11.547Z,-0.79
2023-01-30T06:02:42.405Z,-0.78
2023-01-30T06:05:10.902Z,-0.81
2023-01-30T06:07:38.867Z,-0.80
2023-01-30T06:10:07.057Z,-0.81
2023-01-30T06:12:34.985Z,-0.79
2023-01-30T06:15:05.471Z,-0.80
2023-01-30T06:17:33.415Z,-0.82
2023-01-30T06:20:03.541Z,-0.82
2023-01-30T06:22:31.523Z,-0.82
2023-01-30T06:25:01.113Z,-0.87
2023-01-30T06:27:29.290Z,-0.89
2023-01-30T06:29:57.473Z,-0.90
2023-01-30T06:32:25.618Z,-0.87
2023-01-30T06:35:01.798Z,-0.86
2023-01-30T06:37:29.816Z,-0.88
2023-01-30T06:39:58.911Z,-0.88
2023-01-30T06:42:34.753Z,-0.86
2023-01-30T06:45:04.171Z,-0.85
2023-01-30T06:47:32.450Z,-0.87
2023-01-30T06:50:04.261Z,-0.90
2023-01-30T06:53:12.627Z,-0.90
2023-01-30T06:55:46.724Z,-0.90
2023-01-30T06:58:35.579Z,-0.89
2023-01-30T07:01:19.918Z,-0.89
2023-01-30T07:04:02.407Z,-0.91
2023-01-30T07:28:12.704Z,-0.86
2023-01-30T07:30:46.018Z,-0.86
2023-01-30T07:34:08.330Z,-0.91
2023-01-30T07:36:37.851Z,-0.91
2023-01-30T07:39:20.371Z,-0.93
2023-01-30T07:41:49.176Z,-0.96
2023-01-30T07:44:21.325Z,-0.97
2023-01-30T07:46:49.824Z,-0.97
2023-01-30T07:49:18.273Z,-1.00
2023-01-30T08:19:08.770Z,-0.95
2023-01-30T08:54:23.192Z,0.45
2023-01-30T08:56:53.378Z,0.26
2023-01-30T08:59:24.567Z,0.06
2023-01-30T09:02:02.697Z,-0.02
2023-01-30T09:04:31.135Z,-0.16
2023-01-30T09:06:59.403Z,-0.22
2023-01-30T09:09:29.326Z,-0.28
2023-01-30T09:12:05.293Z,-0.33
2023-01-30T09:14:40.811Z,-0.35
2023-01-30T09:17:10.008Z,-0.39
2023-01-30T09:19:39.332Z,-0.42
2023-01-30T09:22:10.157Z,-0.43
2023-01-30T09:24:38.411Z,-0.45
2023-01-30T09:27:09.412Z,-0.46
2023-01-30T09:29:41.662Z,-0.47
2023-01-30T09:47:02.248Z,-0.25
2023-01-30T09:50:06.411Z,-0.30
2023-01-30T09:53:06.685Z,-0.33
2023-01-30T09:55:41.733Z,-0.36
2023-01-30T09:58:25.575Z,-0.40
2023-01-30T10:01:02.258Z,-0.41
2023-01-30T10:03:42.070Z,-0.42
2023-01-30T10:06:14.768Z,-0.42
2023-01-30T10:09:00.551Z,-0.42
2023-01-30T10:12:04.851Z,-0.41
2023-01-30T10:15:25.620Z,-0.40
2023-01-30T10:18:02.701Z,-0.38
2023-01-30T10:20:35.653Z,-0.37
2023-01-30T10:23:06.202Z,-0.36
2023-01-30T10:25:45.772Z,-0.34
2023-01-30T10:28:35.470Z,-0.35
2023-01-30T10:31:15.393Z,-0.33
2023-01-30T10:33:53.537Z,-0.32
2023-01-30T10:36:57.157Z,-0.30
2023-01-30T10:39:54.818Z,-0.30
2023-01-30T10:42:33.264Z,-0.28
2023-01-30T10:45:24.450Z,-0.29
2023-01-30T10:48:07.451Z,-0.28
2023-01-30T10:50:54.046Z,-0.28
2023-01-30T10:53:49.517Z,-0.20
2023-01-30T10:56:35.146Z,-0.16
2023-01-30T10:59:26.318Z,-0.20
2023-01-30T11:02:35.400Z,-0.19
2023-01-30T11:05:21.505Z,-0.17
2023-01-30T11:07:50.206Z,-0.18
2023-01-30T11:10:22.962Z,-0.18
2023-01-30T11:12:58.823Z,-0.16
2023-01-30T11:15:48.340Z,-0.15
2023-01-30T11:19:06.662Z,-0.14
2023-01-30T11:21:16.428Z,-0.16
2023-01-30T12:08:42.917Z,0.09
2023-01-30T12:11:37.439Z,0.11
2023-01-30T12:14:24.277Z,0.13
2023-01-30T12:17:22.035Z,0.13
2023-01-30T12:21:13.231Z,0.14
2023-01-30T12:24:47.904Z,0.16
2023-01-30T12:28:14.219Z,0.16
2023-01-30T12:31:21.430Z,0.16
2023-01-30T14:13:18.714Z,0.37
2023-01-30T15:21:10.283Z,0.85
2023-01-30T15:24:19.147Z,0.86
2023-01-30T15:56:55.523Z,1.03
2023-01-30T15:59:35.735Z,1.04
2023-01-30T16:02:13.751Z,1.04
2023-01-30T16:04:44.744Z,1.06
2023-01-30T16:10:44.443Z,1.09
2023-01-30T16:13:32.937Z,1.10
2023-01-30T16:16:14.749Z,1.11
2023-01-30T16:18:53.459Z,1.14
2023-01-30T16:22:00.327Z,1.14
2023-01-30T16:24:49.601Z,1.14
2023-01-30T16:27:33.255Z,1.15
2023-01-30T16:30:06.770Z,1.18
2023-01-30T16:32:38.291Z,1.18
2023-01-30T16:35:15.540Z,1.18
2023-01-30T16:37:42.473Z,1.20
2023-01-30T16:40:24.892Z,1.21
2023-01-30T16:43:21.452Z,1.21
2023-01-30T16:45:52.997Z,1.22
2023-01-30T17:17:26.294Z,1.24
2023-01-30T17:20:42.641Z,1.24
2023-01-30T18:07:58.468Z,1.22
2023-01-30T18:10:35.349Z,1.23
2023-01-30T18:13:04.911Z,1.25
2023-01-30T18:15:32.092Z,1.25
2023-01-30T18:18:01.716Z,1.28
2023-01-30T18:20:28.902Z,1.28
2023-01-30T18:23:05.131Z,1.30
2023-01-30T18:26:15.403Z,1.32
2023-01-30T18:28:43.612Z,1.32
2023-01-30T18:31:12.092Z,1.34
2023-01-30T18:33:51.021Z,1.37
2023-01-30T18:36:32.119Z,1.39
2023-01-30T18:39:02.247Z,1.39
2023-01-30T18:41:29.502Z,1.41
2023-01-30T18:44:07.786Z,1.44
2023-01-30T18:46:35.170Z,1.44
2023-01-30T18:49:07.657Z,1.46
2023-01-30T18:51:36.975Z,1.47
2023-01-30T18:54:04.061Z,1.47
2023-01-30T18:56:33.225Z,1.46
2023-01-30T18:59:04.678Z,1.45
2023-01-30T19:01:36.188Z,1.44
2023-01-30T19:04:10.812Z,1.42
2023-01-30T19:06:42.265Z,1.40
2023-01-30T19:09:17.943Z,1.37
2023-01-30T19:12:06.808Z,1.34
2023-01-30T19:14:38.367Z,1.32
2023-01-30T19:17:05.299Z,1.27
2023-01-30T19:19:50.118Z,1.23
2023-01-30T19:22:18.151Z,1.20
2023-01-30T19:24:47.600Z,1.18
2023-01-30T19:27:15.863Z,1.17
2023-01-30T19:29:45.297Z,1.15
2023-01-30T19:32:14.717Z,1.16
2023-01-30T19:34:45.008Z,1.19
2023-01-30T19:37:12.234Z,1.17
2023-01-30T19:39:39.149Z,1.16
2023-01-30T19:42:06.224Z,1.19
2023-01-30T19:44:33.378Z,1.22
2023-01-30T19:47:00.718Z,1.17
2023-01-30T19:49:27.681Z,1.11
2023-01-30T19:51:56.336Z,1.10
2023-01-30T19:54:23.709Z,1.06
2023-01-30T19:56:51.188Z,1.06
2023-01-30T19:59:18.511Z,1.00
2023-01-30T20:01:45.943Z,1.00
2023-01-30T20:04:16.083Z,0.99
2023-01-30T20:06:46.097Z,0.99
2023-01-30T20:09:12.990Z,0.98
2023-01-30T20:11:43.968Z,0.99
2023-01-30T20:14:11.357Z,1.01
2023-01-30T20:16:38.641Z,1.02
2023-01-30T20:19:13.325Z,1.01
2023-01-30T20:21:41.111Z,1.03
2023-01-30T20:24:11.532Z,1.04
2023-01-30T20:26:39.230Z,1.07
2023-01-30T20:29:08.130Z,1.07
2023-01-30T20:31:37.755Z,1.10
2023-01-30T20:34:07.430Z,1.10
2023-01-30T20:36:34.442Z,1.12
2023-01-30T20:39:07.592Z,1.12
2023-01-30T20:41:37.720Z,1.13
2023-01-30T20:44:07.056Z,1.15
2023-01-30T20:46:40.507Z,1.17
2023-01-30T20:49:20.839Z,1.20
2023-01-30T20:51:51.972Z,1.23
2023-01-30T20:54:54.095Z,1.25
2023-01-30T20:57:35.133Z,1.27
2023-01-30T21:00:05.267Z,1.34
2023-01-30T21:02:32.208Z,1.35
2023-01-30T21:04:59.149Z,1.36
2023-01-30T21:07:25.861Z,1.38
2023-01-30T21:09:55.564Z,1.40
2023-01-30T21:12:43.042Z,1.39
2023-01-30T21:15:12.938Z,1.40
2023-01-30T21:17:40.089Z,1.44
2023-01-30T21:20:07.573Z,1.45
2023-01-30T21:22:37.425Z,1.46
2023-01-30T21:25:41.451Z,1.48
2023-01-30T21:28:10.109Z,1.50
2023-01-30T22:06:28.360Z,1.55
2023-01-30T22:08:58.999Z,1.56
2023-01-30T22:11:33.255Z,1.59
2023-01-30T22:14:06.716Z,1.56
2023-01-30T22:16:35.495Z,1.56
2023-01-30T22:19:06.670Z,1.58
2023-01-30T22:21:36.663Z,1.58
2023-01-30T22:24:07.452Z,1.56
2023-01-30T22:26:37.722Z,1.57
2023-01-30T22:29:05.876Z,1.59
2023-01-30T22:31:36.504Z,1.58
2023-01-30T22:34:06.348Z,1.58
2023-01-30T22:36:34.785Z,1.59
2023-01-30T22:39:06.021Z,1.61
2023-01-30T22:41:35.076Z,1.58
2023-01-30T22:44:07.587Z,1.59
2023-01-30T22:46:38.760Z,1.60
2023-01-30T22:49:07.753Z,1.61
2023-01-30T22:51:40.828Z,1.64
2023-01-30T22:54:12.127Z,1.63
2023-01-30T22:56:43.253Z,1.63
2023-01-30T22:59:10.586Z,1.64
2023-01-30T23:01:42.587Z,1.61
2023-01-30T23:04:20.721Z,1.60
2023-01-30T23:06:51.682Z,1.62
2023-01-30T23:09:22.783Z,1.62
2023-01-30T23:12:18.613Z,1.62
2023-01-30T23:15:08.863Z,1.62
2023-01-30T23:18:01.879Z,1.62
2023-01-30T23:20:36.685Z,1.62
2023-01-30T23:23:06.365Z,1.63
2023-01-30T23:25:42.327Z,1.64
2023-01-30T23:28:29.711Z,1.63
2023-01-30T23:30:59.547Z,1.62
2023-01-30T23:33:27.087Z,1.64
2023-01-30T23:36:07.106Z,1.65
2023-01-30T23:38:39.340Z,1.62
2023-01-30T23:41:13.544Z,1.64
2023-01-30T23:43:48.176Z,1.65
2023-01-30T23:46:33.996Z,1.62
2023-01-30T23:49:09.421Z,1.62
2023-01-30T23:51:40.302Z,1.61
2023-01-30T23:54:16.176Z,1.57
2023-01-30T23:56:47.350Z,1.57
2023-01-30T23:59:28.246Z,1.61
